RJDB

Iki Airport

Airport
ICAO code
RJDB
IATA Code
IKI
Summary
ICAO Region
APAC
ICAO Territory
Location

Iki, Nagasaki Prefecture

Serving
Iki
Elevation
41 ft
Coordinates
33° 45' 1" N , 129° 47' 3" E
KCC
Metar
Observation
RJDB 301100Z AUTO 31003KT 9999 NCD 02/M05 Q1022
Station
Iki Airport
Date/Time
2023-01-30 11:00:00
Wind direction
310°
Wind speed
03 kts
Lowest cloud amount
no clouds detected
Temperature
2°C
Dew point
-5°C
Humidity
59%
QNH
1022 hPa
Weather condition
n/a

Small airport in the city of Iki on Iki Island in Nagasaki Prefecture, Japan.

Climatology

Humid Sub-tropical climate (Köppen climate classification Cfa)

Runways

Designator Length Width Surface Rops
2/20 1320 30 ASP Yes/Yes

Airport map

Aerial View

SKYbrary Partners:

Safety knowledge contributed by: